Cohoctah, MI (48816)

11:05 PM EST on February 05, 2016 (GMT -0500)
Deerfield Township | | Change Station
CLOSE
Current Station
Personal Weather Station
Location: Howell, MI
Elevation: 876 ft
Nearby Weather Stations

Elev 876 ft 42.73 °N, 83.88 °W | Updated 1 minute ago

Overcast
Overcast
29.3 °F
Feels Like 26 °F
N
3.1
Wind Variable Wind from WNW

Today
High -- | Low -- °F
--% Chance of Precip.
Yesterday
High -- | Low -- °F
Precip. -- in
Pressure 30.25 in
Visibility 10.0 miles
Clouds Scattered Clouds 4100 ft
Overcast 11000 ft
Windchill 26 °F
Dew Point 24 °F
Humidity 79%
Rainfall 0.00 in
Snow Depth Not available.
7:46 AM 5:53 PM
Waning Crescent, 8% visible
METAR KOZW 060355Z AUTO 28006KT 10SM SCT041 OVC110 M02/M05 A3025 RMK AO2 T10171052
Pressure 30.25 in
Visibility 10.0 miles
Clouds Scattered Clouds 4100 ft
Overcast 11000 ft
Windchill 26 °F
Dew Point 24 °F
Humidity 79%
Rainfall 0.00 in
Snow Depth Not available.
7:46 AM 5:53 PM
Waning Crescent, 8% visible
METAR KOZW 060355Z AUTO 28006KT 10SM SCT041 OVC110 M02/M05 A3025 RMK AO2 T10171052

10-Day Weather Forecast

Almanac

Astronomy

Feb. 05, 2016 Rise Set
Actual Time
Civil Twilight
Nautical Twilight
Astronomical Twilight
Moon
Length of Visible Light
Length of Day
Tomorrow will be .
, % of the Moon is Illuminated

Today's Extremes

State Highs State Lows

Community

WunderPhotos

Upload Photos

1,890,916 photos uploaded!

WunderBlog® & News

Nearby

Air Quality

  Air Quality AQ Index Pollutant
Not available.

Snow Depth

Station Depth Elevation

Earthquake Activity

City Distance Mag. Time & Date
Minimum magnitude displayed is 2.5.

Coastal Water Temperatures

Place Temperature

Stations

Nearby Weather Stations

Station Location Temp. Windchill Dew Point Humidity Wind Precip. Elev Updated Type
                   

Watches & Warnings

There are currently no watches in effect.